Date,TemperatureHighF,TemperatureAvgF,TemperatureLowF,DewpointHighF,DewpointAvgF,DewpointLowF,HumidityHigh,HumidityAvg,HumidityLow,PressureMaxIn,PressureMinIn,WindSpeedMaxMPH,WindSpeedAvgMPH,GustSpeedMaxMPH,PrecipitationSumIn
2013-6-1,65,59,56,55,51,48,86,75,57,29.98,29.61,4,1,7,0.00
2013-6-8,70,65,61,64,60,54,92,86,69,29.82,29.63,1,0,7,0.00
2013-6-9,68,63,60,63,59,57,93,87,75,29.79,29.67,2,0,6,0.00
2013-6-10,82,68,58,68,61,54,93,80,60,29.87,29.73,1,0,5,0.00
2013-6-11,87,77,68,74,67,63,86,72,49,29.79,29.64,1,0,5,0.01
2013-6-12,93,80,64,76,64,53,72,60,49,29.95,29.60,4,2,11,0.00
2013-6-13,83,69,56,64,56,52,88,67,42,30.05,29.95,1,0,5,0.00
2013-6-14,89,83,73,73,70,65,76,65,58,29.90,29.72,4,2,14,0.00
2013-6-15,83,79,72,71,68,63,79,69,56,29.89,29.79,2,0,5,0.00
2013-6-16,91,84,72,72,65,59,66,53,41,29.93,29.86,0,0,1,0.00
2013-6-17,94,79,65,67,62,56,87,57,36,29.95,29.86,0,0,2,0.00
2013-6-18,85,70,64,70,60,54,88,72,51,30.02,29.91,1,0,4,0.00
2013-6-19,89,76,64,71,64,57,86,67,48,29.96,29.83,1,0,1,0.00
2013-6-20,91,81,69,75,70,64,88,71,55,29.90,29.74,0,0,0,0.00
2013-6-21,95,86,77,78,73,70,80,67,53,29.80,29.69,0,0,0,0.00
2013-6-22,92,83,73,75,68,60,74,62,50,29.93,29.71,0,0,0,0.00
2013-6-23,84,76,66,72,68,62,91,78,66,29.86,29.67,2,0,4,0.00
2013-6-24,76,75,72,71,70,65,88,86,79,29.94,29.78,3,0,9,0.00
2013-6-29,83,80,74,63,60,56,58,51,46,29.85,29.82,4,2,12,0.00
2013-6-30,84,76,63,62,56,51,66,50,38,30.06,30.00,1,0,8,0.00